sensor_id;sensor_type;location;lat;lon;timestamp;pressure;altitude;pressure_sealevel;temperature;humidity
63019;BME280;49105;46.046;10.760;2023-06-19T00:01:58;95755.00;;;18.28;63.17
63019;BME280;49105;46.046;10.760;2023-06-19T00:04:32;95759.13;;;18.17;63.94
63019;BME280;49105;46.046;10.760;2023-06-19T00:07:00;95754.88;;;18.16;63.82
63019;BME280;49105;46.046;10.760;2023-06-19T00:09:32;95759.44;;;18.24;63.65
63019;BME280;49105;46.046;10.760;2023-06-19T00:12:01;95752.47;;;18.32;63.67
63019;BME280;49105;46.046;10.760;2023-06-19T00:14:26;95750.25;;;18.34;63.29
63019;BME280;49105;46.046;10.760;2023-06-19T00:16:52;95755.63;;;18.34;63.38
63019;BME280;49105;46.046;10.760;2023-06-19T00:19:26;95752.31;;;18.28;63.71
63019;BME280;49105;46.046;10.760;2023-06-19T00:21:58;95752.63;;;18.35;63.34
63019;BME280;49105;46.046;10.760;2023-06-19T00:24:28;95756.41;;;18.34;63.59
63019;BME280;49105;46.046;10.760;2023-06-19T00:26:54;95760.22;;;18.16;63.59
63019;BME280;49105;46.046;10.760;2023-06-19T00:29:25;95764.19;;;18.19;64.09
63019;BME280;49105;46.046;10.760;2023-06-19T00:31:56;95767.81;;;17.97;64.19
63019;BME280;49105;46.046;10.760;2023-06-19T00:34:29;95762.13;;;17.90;64.70
63019;BME280;49105;46.046;10.760;2023-06-19T00:37:00;95764.00;;;17.98;64.45
63019;BME280;49105;46.046;10.760;2023-06-19T00:39:36;95760.72;;;18.01;64.67
63019;BME280;49105;46.046;10.760;2023-06-19T00:42:07;95766.22;;;17.96;64.29
63019;BME280;49105;46.046;10.760;2023-06-19T00:44:39;95766.84;;;18.01;64.38
63019;BME280;49105;46.046;10.760;2023-06-19T00:47:11;95758.97;;;18.14;63.89
63019;BME280;49105;46.046;10.760;2023-06-19T00:49:42;95765.09;;;18.14;64.20
63019;BME280;49105;46.046;10.760;2023-06-19T00:52:14;95762.75;;;18.04;64.11
63019;BME280;49105;46.046;10.760;2023-06-19T00:54:45;95765.44;;;18.04;64.50
63019;BME280;49105;46.046;10.760;2023-06-19T00:57:20;95772.06;;;18.06;64.26
63019;BME280;49105;46.046;10.760;2023-06-19T00:59:45;95768.13;;;18.04;64.30
63019;BME280;49105;46.046;10.760;2023-06-19T01:02:11;95770.97;;;18.07;64.53
63019;BME280;49105;46.046;10.760;2023-06-19T01:04:45;95765.44;;;18.13;64.19
63019;BME280;49105;46.046;10.760;2023-06-19T01:07:15;95769.88;;;17.91;64.59
63019;BME280;49105;46.046;10.760;2023-06-19T01:09:55;95768.25;;;17.73;65.05
63019;BME280;49105;46.046;10.760;2023-06-19T01:12:37;95764.63;;;17.69;65.35
63019;BME280;49105;46.046;10.760;2023-06-19T01:15:04;95760.25;;;17.81;64.77
63019;BME280;49105;46.046;10.760;2023-06-19T01:17:35;95772.06;;;17.89;64.64
63019;BME280;49105;46.046;10.760;2023-06-19T01:20:01;95769.88;;;17.82;65.21
63019;BME280;49105;46.046;10.760;2023-06-19T01:22:32;95765.28;;;17.83;65.18
63019;BME280;49105;46.046;10.760;2023-06-19T01:24:57;95770.16;;;17.90;64.99
63019;BME280;49105;46.046;10.760;2023-06-19T01:27:24;95773.50;;;17.87;64.88
63019;BME280;49105;46.046;10.760;2023-06-19T01:30:00;95775.16;;;17.65;65.01
63019;BME280;49105;46.046;10.760;2023-06-19T01:32:50;95781.59;;;17.38;65.82
63019;BME280;49105;46.046;10.760;2023-06-19T01:35:21;95782.53;;;17.33;65.86
63019;BME280;49105;46.046;10.760;2023-06-19T01:37:48;95776.41;;;17.50;65.69
63019;BME280;49105;46.046;10.760;2023-06-19T01:40:18;95781.00;;;17.67;65.33
63019;BME280;49105;46.046;10.760;2023-06-19T01:42:51;95778.47;;;17.62;65.44
63019;BME280;49105;46.046;10.760;2023-06-19T01:45:23;95784.94;;;17.61;65.38
63019;BME280;49105;46.046;10.760;2023-06-19T01:47:56;95784.63;;;17.71;65.38
63019;BME280;49105;46.046;10.760;2023-06-19T01:50:25;95784.50;;;17.76;65.49
63019;BME280;49105;46.046;10.760;2023-06-19T01:53:00;95784.78;;;17.66;65.58
63019;BME280;49105;46.046;10.760;2023-06-19T01:55:25;95788.69;;;17.60;65.44
63019;BME280;49105;46.046;10.760;2023-06-19T01:58:00;95789.97;;;17.63;65.80
63019;BME280;49105;46.046;10.760;2023-06-19T02:00:35;95789.50;;;17.69;65.77
63019;BME280;49105;46.046;10.760;2023-06-19T02:03:04;95788.28;;;17.75;65.65
63019;BME280;49105;46.046;10.760;2023-06-19T02:05:48;95794.84;;;17.69;65.35
63019;BME280;49105;46.046;10.760;2023-06-19T02:08:22;95797.50;;;17.60;65.68
63019;BME280;49105;46.046;10.760;2023-06-19T02:10:54;95798.00;;;17.63;65.46
63019;BME280;49105;46.046;10.760;2023-06-19T02:13:20;95797.03;;;17.50;66.13
63019;BME280;49105;46.046;10.760;2023-06-19T02:15:51;95790.41;;;17.39;66.06
63019;BME280;49105;46.046;10.760;2023-06-19T02:18:23;95793.41;;;17.46;66.21
63019;BME280;49105;46.046;10.760;2023-06-19T02:20:54;95788.41;;;17.61;65.98
63019;BME280;49105;46.046;10.760;2023-06-19T02:23:29;95791.88;;;17.71;65.67
63019;BME280;49105;46.046;10.760;2023-06-19T02:25:54;95785.91;;;17.74;65.52
63019;BME280;49105;46.046;10.760;2023-06-19T02:28:20;95794.53;;;17.45;66.18
63019;BME280;49105;46.046;10.760;2023-06-19T02:30:46;95794.19;;;17.38;66.31
63019;BME280;49105;46.046;10.760;2023-06-19T02:33:11;95796.06;;;17.37;66.45
63019;BME280;49105;46.046;10.760;2023-06-19T02:35:41;95790.06;;;17.31;66.76
63019;BME280;49105;46.046;10.760;2023-06-19T02:38:07;95798.28;;;17.44;66.48
63019;BME280;49105;46.046;10.760;2023-06-19T02:40:33;95795.78;;;17.56;66.27
63019;BME280;49105;46.046;10.760;2023-06-19T02:43:09;95796.44;;;17.61;65.87
63019;BME280;49105;46.046;10.760;2023-06-19T02:45:40;95796.28;;;17.67;65.95
63019;BME280;49105;46.046;10.760;2023-06-19T02:48:15;95792.03;;;17.66;66.16
63019;BME280;49105;46.046;10.760;2023-06-19T02:50:41;95790.25;;;17.52;66.15
63019;BME280;49105;46.046;10.760;2023-06-19T02:53:16;95794.03;;;17.43;66.69
63019;BME280;49105;46.046;10.760;2023-06-19T02:55:45;95789.44;;;17.34;66.70
63019;BME280;49105;46.046;10.760;2023-06-19T02:58:19;95790.72;;;17.37;66.36
63019;BME280;49105;46.046;10.760;2023-06-19T03:00:51;95797.19;;;17.45;66.72
63019;BME280;49105;46.046;10.760;2023-06-19T03:03:23;95803.97;;;17.51;66.43
63019;BME280;49105;46.046;10.760;2023-06-19T03:05:58;95794.03;;;17.34;66.84
63019;BME280;49105;46.046;10.760;2023-06-19T03:08:31;95793.69;;;17.35;66.63
63019;BME280;49105;46.046;10.760;2023-06-19T03:11:01;95795.13;;;17.42;66.41
63019;BME280;49105;46.046;10.760;2023-06-19T03:13:33;95795.31;;;17.45;66.38
63019;BME280;49105;46.046;10.760;2023-06-19T03:15:59;95803.94;;;17.42;66.33
63019;BME280;49105;46.046;10.760;2023-06-19T03:18:24;95803.59;;;17.26;66.86
63019;BME280;49105;46.046;10.760;2023-06-19T03:20:49;95816.91;;;17.09;67.16
63019;BME280;49105;46.046;10.760;2023-06-19T03:23:24;95816.25;;;17.03;67.40
63019;BME280;49105;46.046;10.760;2023-06-19T03:26:01;95816.75;;;17.05;67.50
63019;BME280;49105;46.046;10.760;2023-06-19T03:28:33;95808.59;;;17.19;67.10
63019;BME280;49105;46.046;10.760;2023-06-19T03:31:07;95816.19;;;17.26;67.13
63019;BME280;49105;46.046;10.760;2023-06-19T03:33:45;95811.78;;;17.30;67.05
63019;BME280;49105;46.046;10.760;2023-06-19T03:36:12;95812.44;;;17.35;66.82
63019;BME280;49105;46.046;10.760;2023-06-19T03:38:43;95813.22;;;17.36;66.88
63019;BME280;49105;46.046;10.760;2023-06-19T03:41:14;95804.09;;;17.37;67.10
63019;BME280;49105;46.046;10.760;2023-06-19T03:43:46;95815.44;;;17.43;66.79
63019;BME280;49105;46.046;10.760;2023-06-19T03:46:18;95816.72;;;17.45;66.44
63019;BME280;49105;46.046;10.760;2023-06-19T03:48:43;95812.44;;;17.35;66.76
63019;BME280;49105;46.046;10.760;2023-06-19T03:51:15;95820.41;;;17.18;66.94
63019;BME280;49105;46.046;10.760;2023-06-19T03:53:47;95824.59;;;17.02;67.49
63019;BME280;49105;46.046;10.760;2023-06-19T03:56:16;95823.38;;;17.08;67.76
63019;BME280;49105;46.046;10.760;2023-06-19T03:58:41;95820.25;;;17.23;67.15
63019;BME280;49105;46.046;10.760;2023-06-19T04:01:06;95822.00;;;17.28;67.28
63019;BME280;49105;46.046;10.760;2023-06-19T04:03:39;95823.28;;;17.30;67.29
63019;BME280;49105;46.046;10.760;2023-06-19T04:06:13;95822.94;;;17.32;66.93
63019;BME280;49105;46.046;10.760;2023-06-19T04:08:39;95828.16;;;17.28;67.32
63019;BME280;49105;46.046;10.760;2023-06-19T04:11:13;95823.28;;;17.30;67.08
63019;BME280;49105;46.046;10.760;2023-06-19T04:13:39;95822.16;;;17.31;67.27
63019;BME280;49105;46.046;10.760;2023-06-19T04:16:10;95819.19;;;17.33;67.02
63019;BME280;49105;46.046;10.760;2023-06-19T04:18:42;95819.84;;;17.39;67.26
63019;BME280;49105;46.046;10.760;2023-06-19T04:21:07;95821.91;;;17.42;66.82
63019;BME280;49105;46.046;10.760;2023-06-19T04:23:34;95815.69;;;17.24;67.35
63019;BME280;49105;46.046;10.760;2023-06-19T04:25:59;95823.50;;;17.11;67.54
63019;BME280;49105;46.046;10.760;2023-06-19T04:28:33;95817.25;;;17.16;67.76
63019;BME280;49105;46.046;10.760;2023-06-19T04:31:08;95820.00;;;17.33;67.30
63019;BME280;49105;46.046;10.760;2023-06-19T04:33:39;95815.28;;;17.48;67.10
63019;BME280;49105;46.046;10.760;2023-06-19T04:36:13;95812.94;;;17.55;67.05
63019;BME280;49105;46.046;10.760;2023-06-19T04:38:45;95814.84;;;17.63;67.07
63019;BME280;49105;46.046;10.760;2023-06-19T04:41:11;95827.13;;;17.64;67.03
63019;BME280;49105;46.046;10.760;2023-06-19T04:43:36;95818.94;;;17.60;67.01
63019;BME280;49105;46.046;10.760;2023-06-19T04:46:02;95812.38;;;17.75;66.95
63019;BME280;49105;46.046;10.760;2023-06-19T04:48:29;95816.63;;;17.94;66.52
63019;BME280;49105;46.046;10.760;2023-06-19T04:50:54;95815.06;;;18.10;66.56
63019;BME280;49105;46.046;10.760;2023-06-19T04:53:21;95814.88;;;18.32;66.01
63019;BME280;49105;46.046;10.760;2023-06-19T04:55:46;95810.25;;;18.59;65.83
63019;BME280;49105;46.046;10.760;2023-06-19T04:58:12;95814.34;;;18.82;65.61
63019;BME280;49105;46.046;10.760;2023-06-19T05:00:37;95811.72;;;19.03;64.86
63019;BME280;49105;46.046;10.760;2023-06-19T05:03:03;95813.41;;;19.17;64.38
63019;BME280;49105;46.046;10.760;2023-06-19T05:05:28;95813.75;;;19.15;64.41
63019;BME280;49105;46.046;10.760;2023-06-19T05:07:54;95822.84;;;18.93;64.57
63019;BME280;49105;46.046;10.760;2023-06-19T05:10:19;95828.69;;;18.69;65.16
63019;BME280;49105;46.046;10.760;2023-06-19T05:12:45;95822.84;;;18.67;65.58
63019;BME280;49105;46.046;10.760;2023-06-19T05:15:10;95824.75;;;18.75;65.17
63019;BME280;49105;46.046;10.760;2023-06-19T05:17:36;95824.59;;;18.80;64.73
63019;BME280;49105;46.046;10.760;2023-06-19T05:20:06;95819.81;;;18.95;64.77
63019;BME280;49105;46.046;10.760;2023-06-19T05:22:33;95813.44;;;19.08;64.59
63019;BME280;49105;46.046;10.760;2023-06-19T05:25:00;95810.56;;;19.22;64.15
63019;BME280;49105;46.046;10.760;2023-06-19T05:27:25;95820.13;;;19.31;63.98
63019;BME280;49105;46.046;10.760;2023-06-19T05:29:51;95809.81;;;19.42;63.93
63019;BME280;49105;46.046;10.760;2023-06-19T05:32:16;95813.28;;;19.43;63.83
63019;BME280;49105;46.046;10.760;2023-06-19T05:34:41;95809.69;;;19.39;63.83
63019;BME280;49105;46.046;10.760;2023-06-19T05:37:07;95803.25;;;19.31;64.00
63019;BME280;49105;46.046;10.760;2023-06-19T05:39:32;95814.63;;;19.28;63.97
63019;BME280;49105;46.046;10.760;2023-06-19T05:41:58;95806.22;;;19.38;64.12
63019;BME280;49105;46.046;10.760;2023-06-19T05:44:23;95812.19;;;19.44;63.90
63019;BME280;49105;46.046;10.760;2023-06-19T05:46:48;95804.72;;;19.49;63.72
63019;BME280;49105;46.046;10.760;2023-06-19T05:49:14;95805.75;;;19.66;63.54
63019;BME280;49105;46.046;10.760;2023-06-19T05:51:39;95814.22;;;19.76;63.35
63019;BME280;49105;46.046;10.760;2023-06-19T05:54:05;95810.03;;;19.88;63.18
63019;BME280;49105;46.046;10.760;2023-06-19T05:56:31;95805.69;;;19.95;62.97
63019;BME280;49105;46.046;10.760;2023-06-19T05:58:58;95803.47;;;19.97;63.06
63019;BME280;49105;46.046;10.760;2023-06-19T06:01:25;95812.97;;;19.95;63.00
63019;BME280;49105;46.046;10.760;2023-06-19T06:03:53;95799.53;;;19.95;62.84
63019;BME280;49105;46.046;10.760;2023-06-19T06:06:19;95797.53;;;19.92;63.04
63019;BME280;49105;46.046;10.760;2023-06-19T06:08:44;95801.13;;;19.96;63.07
63019;BME280;49105;46.046;10.760;2023-06-19T06:11:10;95800.72;;;20.06;62.92
63019;BME280;49105;46.046;10.760;2023-06-19T06:13:35;95797.63;;;20.16;62.78
63019;BME280;49105;46.046;10.760;2023-06-19T06:16:01;95793.22;;;20.12;62.54
63019;BME280;49105;46.046;10.760;2023-06-19T06:18:26;95791.28;;;20.00;62.68
63019;BME280;49105;46.046;10.760;2023-06-19T06:20:52;95789.69;;;19.99;62.76
63019;BME280;49105;46.046;10.760;2023-06-19T06:23:18;95799.41;;;20.12;62.52
63019;BME280;49105;46.046;10.760;2023-06-19T06:25:43;95794.75;;;20.21;62.35
63019;BME280;49105;46.046;10.760;2023-06-19T06:28:11;95796.56;;;20.29;62.14
63019;BME280;49105;46.046;10.760;2023-06-19T06:30:36;95794.56;;;20.39;61.93
63019;BME280;49105;46.046;10.760;2023-06-19T06:33:01;95794.00;;;20.54;61.89
63019;BME280;49105;46.046;10.760;2023-06-19T06:35:27;95788.41;;;20.71;61.54
63019;BME280;49105;46.046;10.760;2023-06-19T06:37:52;95799.53;;;20.82;61.33
63019;BME280;49105;46.046;10.760;2023-06-19T06:40:18;95792.94;;;20.92;61.00
63019;BME280;49105;46.046;10.760;2023-06-19T06:42:43;95785.09;;;20.99;61.00
63019;BME280;49105;46.046;10.760;2023-06-19T06:45:09;95778.13;;;21.10;60.57
63019;BME280;49105;46.046;10.760;2023-06-19T06:47:35;95779.50;;;21.16;60.46
63019;BME280;49105;46.046;10.760;2023-06-19T06:50:00;95775.44;;;21.22;60.32
63019;BME280;49105;46.046;10.760;2023-06-19T06:52:26;95771.41;;;21.28;60.37
63019;BME280;49105;46.046;10.760;2023-06-19T06:54:53;95774.53;;;21.30;60.14
63019;BME280;49105;46.046;10.760;2023-06-19T06:57:18;95774.09;;;21.28;60.15
63019;BME280;49105;46.046;10.760;2023-06-19T06:59:44;95768.72;;;21.28;60.26
63019;BME280;49105;46.046;10.760;2023-06-19T07:02:09;95767.84;;;21.37;60.11
63019;BME280;49105;46.046;10.760;2023-06-19T07:04:34;95772.09;;;21.38;59.99
63019;BME280;49105;46.046;10.760;2023-06-19T07:07:00;95767.19;;;21.40;59.85
63019;BME280;49105;46.046;10.760;2023-06-19T07:09:25;95765.94;;;21.49;59.70
63019;BME280;49105;46.046;10.760;2023-06-19T07:11:51;95766.94;;;21.57;59.60
63019;BME280;49105;46.046;10.760;2023-06-19T07:14:16;95767.78;;;21.73;59.33
63019;BME280;49105;46.046;10.760;2023-06-19T07:16:44;95765.97;;;21.77;59.18
63019;BME280;49105;46.046;10.760;2023-06-19T07:19:10;95765.75;;;21.83;59.00
63019;BME280;49105;46.046;10.760;2023-06-19T07:21:36;95759.88;;;21.80;58.92
63019;BME280;49105;46.046;10.760;2023-06-19T07:24:04;95755.19;;;21.90;58.79
63019;BME280;49105;46.046;10.760;2023-06-19T07:26:30;95752.09;;;22.03;58.58
63019;BME280;49105;46.046;10.760;2023-06-19T07:28:55;95753.97;;;22.15;58.55
63019;BME280;49105;46.046;10.760;2023-06-19T07:31:21;95746.78;;;22.19;58.11
63019;BME280;49105;46.046;10.760;2023-06-19T07:33:46;95738.88;;;22.26;58.10
63019;BME280;49105;46.046;10.760;2023-06-19T07:36:11;95748.78;;;22.38;58.08
63019;BME280;49105;46.046;10.760;2023-06-19T07:38:40;95741.34;;;22.47;57.59
63019;BME280;49105;46.046;10.760;2023-06-19T07:41:05;95735.34;;;22.54;57.75
63019;BME280;49105;46.046;10.760;2023-06-19T07:43:32;95728.56;;;22.60;57.51
63019;BME280;49105;46.046;10.760;2023-06-19T07:45:58;95738.06;;;22.70;57.12
63019;BME280;49105;46.046;10.760;2023-06-19T07:48:24;95728.91;;;22.74;56.79
63019;BME280;49105;46.046;10.760;2023-06-19T07:50:49;95722.13;;;22.81;56.70
63019;BME280;49105;46.046;10.760;2023-06-19T07:53:15;95723.44;;;22.87;56.38
63019;BME280;49105;46.046;10.760;2023-06-19T07:55:41;95713.69;;;22.98;56.38
63019;BME280;49105;46.046;10.760;2023-06-19T07:58:07;95714.28;;;23.07;56.07
63019;BME280;49105;46.046;10.760;2023-06-19T08:00:32;95702.44;;;23.12;55.83
63019;BME280;49105;46.046;10.760;2023-06-19T08:02:58;95700.69;;;23.19;55.53
63019;BME280;49105;46.046;10.760;2023-06-19T08:05:23;95691.41;;;23.17;54.99
63019;BME280;49105;46.046;10.760;2023-06-19T08:07:49;95690.59;;;23.16;55.24
63019;BME280;49105;46.046;10.760;2023-06-19T08:10:14;95693.03;;;23.21;55.18
63019;BME280;49105;46.046;10.760;2023-06-19T08:12:43;95686.78;;;23.17;54.94
63019;BME280;49105;46.046;10.760;2023-06-19T08:15:10;95684.78;;;23.14;54.99
63019;BME280;49105;46.046;10.760;2023-06-19T08:17:36;95682.16;;;23.18;54.93
63019;BME280;49105;46.046;10.760;2023-06-19T08:20:02;95677.81;;;23.33;54.75
63019;BME280;49105;46.046;10.760;2023-06-19T08:22:30;95677.22;;;23.39;54.74
63019;BME280;49105;46.046;10.760;2023-06-19T08:24:56;95680.34;;;23.41;54.49
63019;BME280;49105;46.046;10.760;2023-06-19T08:27:21;95671.44;;;23.41;54.52
63019;BME280;49105;46.046;10.760;2023-06-19T08:29:47;95670.53;;;23.52;54.58
63019;BME280;49105;46.046;10.760;2023-06-19T08:32:12;95668.94;;;23.67;54.68
63019;BME280;49105;46.046;10.760;2023-06-19T08:34:38;95672.19;;;23.76;54.50
63019;BME280;49105;46.046;10.760;2023-06-19T08:37:04;95658.31;;;23.78;54.17
63019;BME280;49105;46.046;10.760;2023-06-19T08:39:30;95658.91;;;23.87;54.14
63019;BME280;49105;46.046;10.760;2023-06-19T08:41:56;95652.13;;;23.97;54.35
63019;BME280;49105;46.046;10.760;2023-06-19T08:44:21;95653.53;;;24.10;54.23
63019;BME280;49105;46.046;10.760;2023-06-19T08:46:46;95651.78;;;24.21;53.91
63019;BME280;49105;46.046;10.760;2023-06-19T08:49:13;95655.03;;;24.31;54.01
63019;BME280;49105;46.046;10.760;2023-06-19T08:51:39;95650.19;;;24.40;53.88
63019;BME280;49105;46.046;10.760;2023-06-19T08:54:06;95648.06;;;24.49;53.46
63019;BME280;49105;46.046;10.760;2023-06-19T08:56:32;95641.97;;;24.56;53.32
63019;BME280;49105;46.046;10.760;2023-06-19T08:59:13;95645.94;;;24.62;52.44
63019;BME280;49105;46.046;10.760;2023-06-19T09:01:39;95638.66;;;24.66;52.16
63019;BME280;49105;46.046;10.760;2023-06-19T09:04:12;95637.97;;;24.72;52.01
63019;BME280;49105;46.046;10.760;2023-06-19T09:06:48;95635.81;;;24.82;51.72
63019;BME280;49105;46.046;10.760;2023-06-19T09:09:15;95630.03;;;24.83;49.98
63019;BME280;49105;46.046;10.760;2023-06-19T09:11:40;95624.97;;;24.82;49.40
63019;BME280;49105;46.046;10.760;2023-06-19T09:14:09;95622.78;;;24.91;49.84
63019;BME280;49105;46.046;10.760;2023-06-19T09:16:39;95619.81;;;24.99;49.88
63019;BME280;49105;46.046;10.760;2023-06-19T09:19:05;95618.72;;;25.04;49.32
63019;BME280;49105;46.046;10.760;2023-06-19T09:21:30;95614.13;;;25.08;49.32
63019;BME280;49105;46.046;10.760;2023-06-19T09:24:03;95621.97;;;25.13;48.85
63019;BME280;49105;46.046;10.760;2023-06-19T09:26:28;95614.66;;;25.17;48.95
63019;BME280;49105;46.046;10.760;2023-06-19T09:28:53;95617.84;;;25.23;49.18
63019;BME280;49105;46.046;10.760;2023-06-19T09:31:19;95613.31;;;25.31;48.75
63019;BME280;49105;46.046;10.760;2023-06-19T09:33:44;95618.78;;;25.38;48.54
63019;BME280;49105;46.046;10.760;2023-06-19T09:36:10;95606.06;;;25.42;47.97
63019;BME280;49105;46.046;10.760;2023-06-19T09:38:37;95609.59;;;25.46;47.83
63019;BME280;49105;46.046;10.760;2023-06-19T09:41:05;95604.28;;;25.53;47.74
63019;BME280;49105;46.046;10.760;2023-06-19T09:46:04;95609.84;;;25.67;47.27
63019;BME280;49105;46.046;10.760;2023-06-19T09:48:32;95603.72;;;25.74;47.65
63019;BME280;49105;46.046;10.760;2023-06-19T09:51:05;95599.94;;;25.79;47.01
63019;BME280;49105;46.046;10.760;2023-06-19T09:53:35;95608.84;;;25.79;46.40
63019;BME280;49105;46.046;10.760;2023-06-19T09:56:01;95608.50;;;25.81;46.21
63019;BME280;49105;46.046;10.760;2023-06-19T09:58:26;95610.47;;;25.87;46.24
63019;BME280;49105;46.046;10.760;2023-06-19T10:00:54;95607.84;;;25.94;46.33
63019;BME280;49105;46.046;10.760;2023-06-19T10:03:20;95609.44;;;25.99;46.46
63019;BME280;49105;46.046;10.760;2023-06-19T10:05:46;95605.66;;;26.07;46.27
63019;BME280;49105;46.046;10.760;2023-06-19T10:08:11;95610.78;;;26.19;46.55
63019;BME280;49105;46.046;10.760;2023-06-19T10:10:46;95612.03;;;26.29;46.21
63019;BME280;49105;46.046;10.760;2023-06-19T10:13:16;95615.97;;;26.35;46.27
63019;BME280;49105;46.046;10.760;2023-06-19T10:15:43;95617.47;;;26.29;45.63
63019;BME280;49105;46.046;10.760;2023-06-19T10:18:14;95613.94;;;26.25;44.73
63019;BME280;49105;46.046;10.760;2023-06-19T10:20:44;95614.38;;;26.31;45.05
63019;BME280;49105;46.046;10.760;2023-06-19T10:23:15;95604.34;;;26.35;44.90
63019;BME280;49105;46.046;10.760;2023-06-19T10:25:45;95609.88;;;26.45;45.21
63019;BME280;49105;46.046;10.760;2023-06-19T10:28:28;95616.56;;;26.55;45.79
63019;BME280;49105;46.046;10.760;2023-06-19T10:31:04;95615.41;;;26.56;45.10
63019;BME280;49105;46.046;10.760;2023-06-19T10:33:32;95601.50;;;26.65;45.61
63019;BME280;49105;46.046;10.760;2023-06-19T10:35:58;95607.72;;;26.65;44.96
63019;BME280;49105;46.046;10.760;2023-06-19T10:38:30;95605.03;;;26.69;45.07
63019;BME280;49105;46.046;10.760;2023-06-19T10:40:55;95603.50;;;26.71;45.00
63019;BME280;49105;46.046;10.760;2023-06-19T10:43:24;95601.53;;;26.68;45.05
63019;BME280;49105;46.046;10.760;2023-06-19T10:45:53;95600.78;;;26.71;45.27
63019;BME280;49105;46.046;10.760;2023-06-19T10:48:25;95600.03;;;26.75;44.46
63019;BME280;49105;46.046;10.760;2023-06-19T10:50:51;95604.66;;;26.74;44.57
63019;BME280;49105;46.046;10.760;2023-06-19T10:53:32;95598.88;;;26.76;44.70
63019;BME280;49105;46.046;10.760;2023-06-19T10:56:02;95606.28;;;26.82;44.64
63019;BME280;49105;46.046;10.760;2023-06-19T10:58:28;95597.75;;;26.84;44.90
63019;BME280;49105;46.046;10.760;2023-06-19T11:00:54;95592.34;;;26.87;44.76
63019;BME280;49105;46.046;10.760;2023-06-19T11:03:20;95597.03;;;26.94;44.86
63019;BME280;49105;46.046;10.760;2023-06-19T11:05:47;95586.59;;;26.96;44.71
63019;BME280;49105;46.046;10.760;2023-06-19T11:08:20;95584.63;;;26.93;44.17
63019;BME280;49105;46.046;10.760;2023-06-19T11:10:46;95591.63;;;26.97;44.40
63019;BME280;49105;46.046;10.760;2023-06-19T11:13:16;95585.44;;;27.01;43.91
63019;BME280;49105;46.046;10.760;2023-06-19T11:15:42;95582.72;;;26.97;43.61
63019;BME280;49105;46.046;10.760;2023-06-19T11:18:08;95569.91;;;27.01;43.96
63019;BME280;49105;46.046;10.760;2023-06-19T11:20:50;95573.81;;;27.07;44.10
63019;BME280;49105;46.046;10.760;2023-06-19T11:23:17;95584.38;;;27.12;44.08
63019;BME280;49105;46.046;10.760;2023-06-19T11:25:43;95579.31;;;27.14;43.46
63019;BME280;49105;46.046;10.760;2023-06-19T11:28:15;95585.50;;;27.11;43.08
63019;BME280;49105;46.046;10.760;2023-06-19T11:30:47;95591.75;;;27.12;43.18
63019;BME280;49105;46.046;10.760;2023-06-19T11:33:21;95581.69;;;27.16;43.46
63019;BME280;49105;46.046;10.760;2023-06-19T11:35:51;95591.41;;;27.20;43.09
63019;BME280;49105;46.046;10.760;2023-06-19T11:38:20;95577.44;;;27.22;42.84
63019;BME280;49105;46.046;10.760;2023-06-19T11:40:46;95584.81;;;27.21;41.96
63019;BME280;49105;46.046;10.760;2023-06-19T11:43:26;95588.56;;;27.06;42.22
63019;BME280;49105;46.046;10.760;2023-06-19T11:45:52;95581.59;;;27.05;42.49
63019;BME280;49105;46.046;10.760;2023-06-19T11:48:25;95591.28;;;27.06;42.79
63019;BME280;49105;46.046;10.760;2023-06-19T11:50:51;95586.94;;;26.94;42.77
63019;BME280;49105;46.046;10.760;2023-06-19T11:53:19;95583.81;;;26.89;43.00
63019;BME280;49105;46.046;10.760;2023-06-19T11:55:45;95590.06;;;26.93;43.19
63019;BME280;49105;46.046;10.760;2023-06-19T11:58:10;95585.47;;;27.04;43.05
63019;BME280;49105;46.046;10.760;2023-06-19T12:00:36;95589.44;;;27.17;43.01
63019;BME280;49105;46.046;10.760;2023-06-19T12:03:03;95591.81;;;27.26;42.67
63019;BME280;49105;46.046;10.760;2023-06-19T12:05:28;95577.84;;;27.31;42.04
63019;BME280;49105;46.046;10.760;2023-06-19T12:07:54;95578.25;;;27.33;42.02
63019;BME280;49105;46.046;10.760;2023-06-19T12:10:19;95596.94;;;27.42;42.20
63019;BME280;49105;46.046;10.760;2023-06-19T12:12:45;95593.81;;;27.43;42.03
63019;BME280;49105;46.046;10.760;2023-06-19T12:15:10;95592.66;;;27.48;42.00
63019;BME280;49105;46.046;10.760;2023-06-19T12:17:36;95584.09;;;27.39;41.69
63019;BME280;49105;46.046;10.760;2023-06-19T12:20:02;95585.66;;;27.36;41.59
63019;BME280;49105;46.046;10.760;2023-06-19T12:22:34;95575.91;;;27.35;41.31
63019;BME280;49105;46.046;10.760;2023-06-19T12:24:59;95581.38;;;27.39;41.32
63019;BME280;49105;46.046;10.760;2023-06-19T12:27:25;95569.75;;;27.42;41.44
63019;BME280;49105;46.046;10.760;2023-06-19T12:29:50;95569.34;;;27.43;41.80
63019;BME280;49105;46.046;10.760;2023-06-19T12:32:16;95572.50;;;27.49;41.87
63019;BME280;49105;46.046;10.760;2023-06-19T12:34:41;95562.41;;;27.53;41.28
63019;BME280;49105;46.046;10.760;2023-06-19T12:37:14;95572.09;;;27.51;41.67
63019;BME280;49105;46.046;10.760;2023-06-19T12:39:40;95567.44;;;27.48;42.15
63019;BME280;49105;46.046;10.760;2023-06-19T12:42:06;95576.34;;;27.48;42.32
63019;BME280;49105;46.046;10.760;2023-06-19T12:44:32;95582.94;;;27.43;42.84
63019;BME280;49105;46.046;10.760;2023-06-19T12:46:57;95573.63;;;27.48;42.77
63019;BME280;49105;46.046;10.760;2023-06-19T12:49:25;95575.25;;;27.63;42.67
63019;BME280;49105;46.046;10.760;2023-06-19T12:51:50;95567.16;;;27.74;42.75
63019;BME280;49105;46.046;10.760;2023-06-19T12:54:17;95564.84;;;27.80;42.12
63019;BME280;49105;46.046;10.760;2023-06-19T12:56:43;95561.75;;;27.92;42.19
63019;BME280;49105;46.046;10.760;2023-06-19T12:59:08;95564.84;;;28.01;42.21